createdAt,value
2019-01-11T00:07:18.372Z,4.5
2019-01-11T00:17:17.559Z,4.5
2019-01-11T00:27:16.753Z,4.4
2019-01-11T00:37:15.952Z,4.2
2019-01-11T00:47:15.154Z,4
2019-01-11T00:57:14.361Z,4.1
2019-01-11T01:07:13.547Z,4.1
2019-01-11T01:17:12.747Z,4
2019-01-11T01:27:11.944Z,3.8
2019-01-11T01:37:11.151Z,3.7
2019-01-11T01:47:10.346Z,3.6
2019-01-11T01:57:09.542Z,3.7
2019-01-11T02:07:08.741Z,3.6
2019-01-11T02:17:07.936Z,3.4
2019-01-11T02:27:07.135Z,3.3
2019-01-11T02:37:06.337Z,2.9
2019-01-11T02:47:05.538Z,2.7
2019-01-11T02:57:04.725Z,2.6
2019-01-11T03:07:03.923Z,2.5
2019-01-11T03:17:03.122Z,2.5
2019-01-11T03:27:02.321Z,2.5
2019-01-11T03:37:01.517Z,2.6
2019-01-11T03:47:00.717Z,2.5
2019-01-11T03:56:59.915Z,2.6
2019-01-11T04:06:59.116Z,2.4
2019-01-11T04:16:58.312Z,2.4
2019-01-11T04:26:57.504Z,2.4
2019-01-11T04:36:56.703Z,2.3
2019-01-11T04:46:55.906Z,2.2
2019-01-11T04:56:55.115Z,2.2
2019-01-11T05:06:54.316Z,2.2
2019-01-11T05:16:53.517Z,2.2
2019-01-11T05:26:52.721Z,-0.3
2019-01-11T05:36:51.919Z,-1.3
2019-01-11T05:46:51.125Z,-1.8
2019-01-11T05:56:50.327Z,-1.9
2019-01-11T06:06:49.527Z,-1.8
2019-01-11T06:16:48.723Z,-1.7
2019-01-11T06:26:47.915Z,-1.5
2019-01-11T06:36:47.116Z,0.4
2019-01-11T06:46:46.312Z,3.6
2019-01-11T06:56:45.511Z,7.1
2019-01-11T07:06:44.709Z,8.9
2019-01-11T07:16:43.899Z,10
2019-01-11T07:26:43.105Z,5.8
2019-01-11T07:36:42.298Z,3.8
2019-01-11T07:46:41.496Z,2.6
2019-01-11T07:56:40.692Z,2.9
2019-01-11T08:06:39.887Z,2.6
2019-01-11T08:16:39.085Z,2.4
2019-01-11T08:26:38.280Z,2.2
2019-01-11T08:36:37.479Z,2.1
2019-01-11T08:46:36.671Z,2.4
2019-01-11T08:56:35.868Z,2.3
2019-01-11T09:06:35.066Z,2.6
2019-01-11T09:16:34.266Z,2.3
2019-01-11T09:26:33.456Z,2.6
2019-01-11T09:36:32.653Z,2.9
2019-01-11T09:46:31.843Z,3.3
2019-01-11T09:56:31.041Z,3.1
2019-01-11T10:06:30.237Z,2.6
2019-01-11T10:16:29.433Z,2.6
2019-01-11T10:26:28.626Z,2.4
2019-01-11T10:36:27.821Z,2.4
2019-01-11T10:46:27.015Z,2.3
2019-01-11T10:56:26.217Z,2.3
2019-01-11T11:06:25.416Z,2.1
2019-01-11T11:16:24.615Z,2.4
2019-01-11T11:26:23.815Z,2.4
2019-01-11T11:36:23.019Z,2.5
2019-01-11T11:46:22.226Z,2.3
2019-01-11T11:56:21.428Z,2.4
2019-01-11T12:06:20.629Z,2.3
2019-01-11T12:16:19.827Z,2.3
2019-01-11T12:26:19.024Z,2.6
2019-01-11T12:36:18.219Z,2.8
2019-01-11T12:46:17.421Z,3.2
2019-01-11T12:56:16.614Z,3.2
2019-01-11T13:06:15.813Z,3.2
2019-01-11T13:16:15.007Z,3.1
2019-01-11T13:26:14.207Z,3
2019-01-11T13:36:13.398Z,2.7
2019-01-11T13:46:12.598Z,2.3
2019-01-11T13:56:11.789Z,2.1
2019-01-11T14:06:10.987Z,2.2
2019-01-11T14:16:10.234Z,2.2
2019-01-11T14:26:09.379Z,2.3
2019-01-11T14:36:08.574Z,2
2019-01-11T14:46:07.771Z,2.1
2019-01-11T14:56:06.967Z,1.9
2019-01-11T15:06:06.163Z,1.9
2019-01-11T15:16:05.365Z,1.9
2019-01-11T15:26:04.570Z,1.9
2019-01-11T15:36:03.761Z,2
2019-01-11T15:46:02.963Z,2.1
2019-01-11T15:56:02.168Z,2.8
2019-01-11T16:06:01.367Z,3.3
2019-01-11T16:16:00.566Z,3.6
2019-01-11T16:25:59.765Z,3.6
2019-01-11T16:35:58.971Z,3.8
2019-01-11T16:45:58.172Z,3.9
2019-01-11T16:55:57.370Z,3.9
2019-01-11T17:05:56.585Z,4
2019-01-11T17:15:55.785Z,4
2019-01-11T17:25:54.984Z,4.1
2019-01-11T17:35:54.188Z,4.1
2019-01-11T17:45:53.395Z,4.1
2019-01-11T17:55:52.602Z,4.1
2019-01-11T18:05:51.805Z,4.3
2019-01-11T18:15:51.003Z,4.4
2019-01-11T18:25:50.215Z,4.4
2019-01-11T18:35:49.419Z,4.3
2019-01-11T18:45:48.623Z,4.4
2019-01-11T18:55:47.857Z,4.4
2019-01-11T19:05:48.604Z,4.4
2019-01-11T19:15:46.242Z,4.6
2019-01-11T19:25:45.474Z,4.6
2019-01-11T19:35:44.651Z,4.6
2019-01-11T19:45:43.864Z,4.6
2019-01-11T19:55:43.077Z,4.6
2019-01-11T20:05:42.293Z,4.6
2019-01-11T20:15:41.496Z,4.5
2019-01-11T20:25:40.681Z,4.4
2019-01-11T20:35:39.896Z,4.4
2019-01-11T20:45:39.099Z,4.4
2019-01-11T20:55:38.305Z,4.3
2019-01-11T21:05:37.510Z,4.2
2019-01-11T21:15:36.723Z,4.1
2019-01-11T21:25:35.921Z,4.1
2019-01-11T21:35:35.129Z,4
2019-01-11T21:45:34.341Z,3.9
2019-01-11T21:55:33.549Z,4
2019-01-11T22:05:32.749Z,3.9
2019-01-11T22:15:31.953Z,4
2019-01-11T22:25:31.160Z,4.1
2019-01-11T22:35:30.362Z,4.1
2019-01-11T22:45:29.566Z,4.2
2019-01-11T22:55:28.766Z,4.2
2019-01-11T23:05:27.965Z,4.2
2019-01-11T23:15:27.166Z,4.1
2019-01-11T23:25:26.370Z,4.1
2019-01-11T23:35:25.569Z,4.1
2019-01-11T23:45:24.771Z,4.1
2019-01-11T23:55:23.967Z,4.1
